createdAt,value
2019-03-31T00:03:50.870Z,100518.30
2019-03-31T00:08:54.628Z,100519.34
2019-03-31T00:13:58.467Z,100519.45
2019-03-31T00:19:02.653Z,100523.58
2019-03-31T00:24:06.361Z,100520.59
2019-03-31T00:29:09.981Z,100515.31
2019-03-31T00:34:13.600Z,100521.95
2019-03-31T00:39:17.223Z,100512.70
2019-03-31T00:44:21.645Z,100506.70
2019-03-31T00:49:25.290Z,100500.35
2019-03-31T00:54:28.903Z,100497.55
2019-03-31T00:59:32.733Z,100501.83
2019-03-31T01:04:36.287Z,100496.40
2019-03-31T01:09:39.964Z,100495.48
2019-03-31T01:14:43.579Z,100491.48
2019-03-31T01:19:47.198Z,100496.44
2019-03-31T01:24:50.817Z,100498.19
2019-03-31T01:29:54.443Z,100490.66
2019-03-31T01:34:58.072Z,100489.20
2019-03-31T01:40:01.680Z,100484.55
2019-03-31T01:45:07.037Z,100482.08
2019-03-31T01:50:12.067Z,100477.11
2019-03-31T01:55:15.719Z,100480.94
2019-03-31T02:00:30.190Z,100475.88
2019-03-31T02:05:33.826Z,100469.44
2019-03-31T02:10:37.535Z,100462.13
2019-03-31T02:15:41.149Z,100463.98
2019-03-31T02:20:44.764Z,100462.34
2019-03-31T02:25:48.383Z,100452.30
2019-03-31T02:30:51.933Z,100447.02
2019-03-31T02:35:55.626Z,100451.96
2019-03-31T02:40:59.252Z,100447.58
2019-03-31T02:46:02.883Z,100446.74
2019-03-31T02:51:06.587Z,100439.72
2019-03-31T02:56:10.208Z,100446.85
2019-03-31T03:01:13.828Z,100445.51
2019-03-31T03:06:17.443Z,100437.73
2019-03-31T03:11:21.277Z,100430.38
2019-03-31T03:16:24.889Z,100431.67
2019-03-31T03:21:28.445Z,100430.98
2019-03-31T03:26:31.988Z,100431.80
2019-03-31T03:31:35.649Z,100431.67
2019-03-31T03:36:43.013Z,100419.75
2019-03-31T03:41:44.527Z,100421.42
2019-03-31T03:46:48.142Z,100416.97
2019-03-31T03:51:51.755Z,100414.59
2019-03-31T03:56:55.374Z,100414.89
2019-03-31T04:01:59.009Z,100412.72
2019-03-31T04:07:02.621Z,100417.95
2019-03-31T04:12:06.190Z,100415.63
2019-03-31T04:17:09.748Z,100421.55
2019-03-31T04:22:13.356Z,100419.77
2019-03-31T04:27:19.152Z,100412.34
2019-03-31T04:32:22.195Z,100410.42
2019-03-31T04:37:25.748Z,100402.61
2019-03-31T04:42:29.356Z,100405.45
2019-03-31T04:47:32.909Z,100412.06
2019-03-31T04:52:36.973Z,100428.06
2019-03-31T04:57:40.497Z,100444.98
2019-03-31T05:02:44.091Z,100451.95
2019-03-31T05:07:47.618Z,100444.99
2019-03-31T05:12:51.211Z,100441.51
2019-03-31T05:17:54.764Z,100446.59
2019-03-31T05:22:58.345Z,100458.05
2019-03-31T05:28:01.874Z,100461.05
2019-03-31T05:33:05.449Z,100463.94
2019-03-31T05:38:09.007Z,100463.38
2019-03-31T05:43:12.588Z,100451.80
2019-03-31T05:48:16.136Z,100459.66
2019-03-31T05:53:19.709Z,100457.59
2019-03-31T05:58:23.267Z,100463.04
2019-03-31T06:03:26.833Z,100468.48
2019-03-31T06:08:30.361Z,100462.20
2019-03-31T06:13:34.031Z,100464.16
2019-03-31T06:18:37.559Z,100464.97
2019-03-31T06:23:41.130Z,100476.66
2019-03-31T06:28:44.708Z,100486.47
2019-03-31T06:33:48.260Z,100479.09
2019-03-31T06:38:51.833Z,100481.38
2019-03-31T06:43:55.412Z,100469.84
2019-03-31T06:48:59.017Z,100478.57
2019-03-31T06:54:02.570Z,100483.11
2019-03-31T06:59:06.148Z,100494.63
2019-03-31T07:04:09.705Z,100499.66
2019-03-31T07:09:13.273Z,100499.81
2019-03-31T07:14:16.849Z,100495.42
2019-03-31T07:19:20.460Z,100498.94
2019-03-31T07:24:24.083Z,100505.86
2019-03-31T07:29:27.704Z,100509.80
2019-03-31T07:34:31.286Z,100511.70
2019-03-31T07:39:35.225Z,100508.27
2019-03-31T07:44:39.084Z,100501.89
2019-03-31T07:49:42.688Z,100507.72
2019-03-31T07:54:46.216Z,100510.23
2019-03-31T07:59:49.832Z,100515.37
2019-03-31T08:04:53.343Z,100521.52
2019-03-31T08:09:56.963Z,100527.68
2019-03-31T08:15:00.590Z,100526.13
2019-03-31T08:20:09.885Z,100533.28
2019-03-31T08:25:12.933Z,100540.05
2019-03-31T08:30:17.487Z,100554.30
2019-03-31T08:35:21.015Z,100558.36
2019-03-31T08:40:24.728Z,100558.43
2019-03-31T08:45:30.455Z,100571.79
2019-03-31T08:50:34.950Z,100560.61
2019-03-31T08:55:38.762Z,100563.70
2019-03-31T09:00:43.914Z,100563.27
2019-03-31T09:06:00.569Z,100569.69
2019-03-31T09:10:52.891Z,100564.25
2019-03-31T09:15:56.832Z,100576.00
2019-03-31T09:21:00.432Z,100586.09
2019-03-31T09:26:05.081Z,100579.43
2019-03-31T09:31:08.702Z,100575.95
2019-03-31T09:36:16.389Z,100584.42
2019-03-31T09:41:17.681Z,100577.59
2019-03-31T09:46:21.323Z,100577.41
2019-03-31T09:51:24.863Z,100575.61
2019-03-31T09:56:28.431Z,100574.28
2019-03-31T10:01:32.381Z,100576.14
2019-03-31T10:06:38.203Z,100578.98
2019-03-31T10:11:41.858Z,100576.36
2019-03-31T10:16:45.576Z,100574.64
2019-03-31T10:26:53.583Z,100571.72
2019-03-31T10:31:57.460Z,100588.56
2019-03-31T10:37:01.127Z,100580.24
2019-03-31T10:42:05.214Z,100580.31
2019-03-31T10:47:09.298Z,100565.39
2019-03-31T10:52:12.962Z,100578.16
2019-03-31T10:57:16.988Z,100579.95
2019-03-31T11:02:20.965Z,100583.59
2019-03-31T11:07:24.639Z,100586.83
2019-03-31T11:12:28.379Z,100578.38
2019-03-31T11:17:31.926Z,100592.64
2019-03-31T11:22:55.571Z,100585.63
2019-03-31T11:27:59.187Z,100588.73
2019-03-31T11:33:02.800Z,100583.92
2019-03-31T11:38:06.427Z,100589.25
2019-03-31T11:43:10.043Z,100587.98
2019-03-31T11:48:13.565Z,100581.77
2019-03-31T11:53:17.291Z,100589.37
2019-03-31T11:58:20.903Z,100586.28
2019-03-31T12:03:24.524Z,100579.20
2019-03-31T12:08:28.470Z,100597.02
2019-03-31T12:13:32.177Z,100594.80
2019-03-31T12:18:35.787Z,100586.36
2019-03-31T12:23:39.915Z,100579.76
2019-03-31T12:28:43.584Z,100586.41
2019-03-31T12:33:47.259Z,100586.91
2019-03-31T12:38:53.675Z,100592.30
2019-03-31T12:43:56.177Z,100586.50
2019-03-31T12:48:59.967Z,100581.65
2019-03-31T12:54:03.530Z,100581.70
2019-03-31T12:59:07.198Z,100577.73
2019-03-31T13:04:10.819Z,100579.52
2019-03-31T13:09:14.434Z,100587.08
2019-03-31T13:14:17.956Z,100580.47
2019-03-31T13:19:21.532Z,100578.72
2019-03-31T13:24:25.094Z,100585.38
2019-03-31T13:29:28.713Z,100580.47
2019-03-31T13:34:32.288Z,100591.15
2019-03-31T13:39:35.813Z,100572.14
2019-03-31T13:44:39.396Z,100587.20
2019-03-31T13:49:42.905Z,100593.86
2019-03-31T13:54:46.501Z,100590.27
2019-03-31T13:59:50.109Z,100584.36
2019-03-31T14:04:53.945Z,100601.52
2019-03-31T14:09:57.873Z,100602.57
2019-03-31T14:15:01.642Z,100602.45
2019-03-31T14:20:07.779Z,100599.25
2019-03-31T14:25:11.393Z,100590.88
2019-03-31T14:30:15.123Z,100612.31
2019-03-31T14:35:18.652Z,100603.82
2019-03-31T14:40:22.257Z,100598.83
2019-03-31T14:45:30.655Z,100598.83
2019-03-31T14:50:35.511Z,100604.55
2019-03-31T14:55:39.155Z,100625.66
2019-03-31T15:01:00.795Z,100610.18
2019-03-31T15:06:04.826Z,100617.72
2019-03-31T15:11:08.344Z,100603.34
2019-03-31T15:16:12.065Z,100626.81
2019-03-31T15:21:15.601Z,100632.60
2019-03-31T15:26:19.446Z,100644.93
2019-03-31T15:31:23.023Z,100648.45
2019-03-31T15:36:26.649Z,100653.71
2019-03-31T15:41:30.299Z,100655.33
2019-03-31T15:46:33.988Z,100667.89
2019-03-31T15:51:37.609Z,100681.13
2019-03-31T15:56:41.222Z,100679.34
2019-03-31T16:01:44.758Z,100680.19
2019-03-31T16:06:48.467Z,100694.47
2019-03-31T16:11:53.900Z,100699.90
2019-03-31T16:16:57.319Z,100701.77
2019-03-31T16:22:00.957Z,100711.14
2019-03-31T16:27:04.890Z,100719.22
2019-03-31T16:32:08.516Z,100729.00
2019-03-31T16:37:12.124Z,100732.61
2019-03-31T16:42:15.740Z,100720.76
2019-03-31T16:47:19.368Z,100745.06
2019-03-31T16:52:22.984Z,100757.00
2019-03-31T16:57:26.603Z,100756.83
2019-03-31T17:02:30.224Z,100764.28
2019-03-31T17:07:33.790Z,100766.27
2019-03-31T17:12:37.312Z,100776.14
2019-03-31T17:17:40.885Z,100790.08
2019-03-31T17:22:44.427Z,100801.96
2019-03-31T17:27:48.046Z,100805.02
2019-03-31T17:32:51.618Z,100814.64
2019-03-31T17:37:55.213Z,100820.81
2019-03-31T17:42:58.747Z,100839.78
2019-03-31T17:48:02.325Z,100839.81
2019-03-31T17:53:06.120Z,100852.23
2019-03-31T17:58:09.712Z,100856.23
2019-03-31T18:03:15.604Z,100863.64
2019-03-31T18:08:18.719Z,100867.13
2019-03-31T18:13:22.330Z,100866.39
2019-03-31T18:18:25.944Z,100867.70
2019-03-31T18:23:29.767Z,100881.87
2019-03-31T18:28:33.394Z,100892.48
2019-03-31T18:33:37.013Z,100893.84
2019-03-31T18:38:40.817Z,100899.11
2019-03-31T18:43:51.135Z,100903.54
2019-03-31T18:48:50.047Z,100907.98
2019-03-31T18:53:55.176Z,100915.09
2019-03-31T18:59:00.427Z,100926.14
2019-03-31T19:04:22.234Z,100926.58
2019-03-31T19:09:27.429Z,100923.50
2019-03-31T19:14:35.563Z,100937.62
2019-03-31T19:19:56.826Z,100933.62
2019-03-31T19:25:04.815Z,100941.89
2019-03-31T19:30:15.933Z,100938.79
2019-03-31T19:35:21.163Z,100947.80
2019-03-31T19:40:27.349Z,100951.66
2019-03-31T19:45:32.883Z,100952.37
2019-03-31T19:50:54.791Z,100959.29
2019-03-31T19:56:07.761Z,100974.45
2019-03-31T20:01:18.610Z,100976.88
2019-03-31T20:06:24.081Z,100974.45
2019-03-31T20:11:29.241Z,100981.44
2019-03-31T20:16:37.349Z,100981.44
2019-03-31T20:21:45.188Z,100988.33
2019-03-31T20:26:50.376Z,100988.88
2019-03-31T20:31:55.507Z,101006.20
2019-03-31T20:37:19.147Z,101001.81
2019-03-31T20:42:36.323Z,101011.59
2019-03-31T20:47:39.859Z,101022.22
2019-03-31T20:52:43.419Z,101016.03
2019-03-31T20:57:47.017Z,101029.72
2019-03-31T21:02:50.662Z,101035.44
2019-03-31T21:07:54.290Z,101041.63
2019-03-31T21:12:57.831Z,101053.11
2019-03-31T21:18:01.522Z,101058.41
2019-03-31T21:23:05.341Z,101069.88
2019-03-31T21:28:08.958Z,101076.05
2019-03-31T21:33:12.584Z,101079.12
2019-03-31T21:38:16.128Z,101083.48
2019-03-31T21:43:19.722Z,101090.13
2019-03-31T21:48:23.334Z,101090.31
2019-03-31T21:53:26.957Z,101093.87
2019-03-31T21:58:30.576Z,101098.52
2019-03-31T22:03:34.189Z,101105.25
2019-03-31T22:08:37.764Z,101107.28
2019-03-31T22:13:41.334Z,101113.00
2019-03-31T22:18:44.953Z,101119.74
2019-03-31T22:23:57.727Z,101125.22
2019-03-31T22:28:53.933Z,101126.25
2019-03-31T22:33:57.631Z,101131.71
2019-03-31T22:39:01.272Z,101128.31
2019-03-31T22:44:04.993Z,101142.16
2019-03-31T22:49:08.629Z,101150.23
2019-03-31T22:54:12.227Z,101150.23
2019-03-31T22:59:15.854Z,101151.13
2019-03-31T23:04:19.401Z,101159.47
2019-03-31T23:09:22.963Z,101163.82
2019-03-31T23:14:26.495Z,101162.84
2019-03-31T23:19:30.126Z,101167.58
2019-03-31T23:24:33.745Z,101169.28
2019-03-31T23:29:37.365Z,101171.76
2019-03-31T23:34:40.984Z,101179.23
2019-03-31T23:39:44.634Z,101172.12
2019-03-31T23:44:48.327Z,101179.10
2019-03-31T23:49:51.944Z,101178.57
2019-03-31T23:54:55.569Z,101182.50
2019-03-31T23:59:59.183Z,101183.78
